sensor_id;sensor_type;location;lat;lon;timestamp;pressure;altitude;pressure_sealevel;temperature
70415;BMP280;57837;52.064;113.478;2022-11-20T00:01:32;93898.13;;;-16.61
70415;BMP280;57837;52.064;113.478;2022-11-20T00:04:36;93896.38;;;-16.60
70415;BMP280;57837;52.064;113.478;2022-11-20T00:07:40;93898.34;;;-16.63
70415;BMP280;57837;52.064;113.478;2022-11-20T00:10:44;93899.63;;;-16.50
70415;BMP280;57837;52.064;113.478;2022-11-20T00:13:50;93900.63;;;-16.46
70415;BMP280;57837;52.064;113.478;2022-11-20T00:16:54;93896.66;;;-16.31
70415;BMP280;57837;52.064;113.478;2022-11-20T00:19:58;93903.63;;;-16.03
70415;BMP280;57837;52.064;113.478;2022-11-20T00:23:01;93903.13;;;-15.79
70415;BMP280;57837;52.064;113.478;2022-11-20T00:26:10;93899.66;;;-15.63
70415;BMP280;57837;52.064;113.478;2022-11-20T00:29:15;93907.53;;;-15.41
70415;BMP280;57837;52.064;113.478;2022-11-20T00:32:18;93898.53;;;-15.21
70415;BMP280;57837;52.064;113.478;2022-11-20T00:35:22;93901.91;;;-15.02
70415;BMP280;57837;52.064;113.478;2022-11-20T00:38:26;93902.81;;;-14.78
70415;BMP280;57837;52.064;113.478;2022-11-20T00:41:30;93903.69;;;-14.53
70415;BMP280;57837;52.064;113.478;2022-11-20T00:44:34;93903.06;;;-14.35
70415;BMP280;57837;52.064;113.478;2022-11-20T00:47:38;93901.53;;;-14.26
70415;BMP280;57837;52.064;113.478;2022-11-20T00:50:42;93908.97;;;-14.26
70415;BMP280;57837;52.064;113.478;2022-11-20T00:53:46;93910.84;;;-14.52
70415;BMP280;57837;52.064;113.478;2022-11-20T00:56:52;93906.41;;;-14.55
70415;BMP280;57837;52.064;113.478;2022-11-20T00:59:56;93912.88;;;-14.54
70415;BMP280;57837;52.064;113.478;2022-11-20T01:03:00;93907.69;;;-14.62
70415;BMP280;57837;52.064;113.478;2022-11-20T01:06:06;93907.25;;;-14.69
70415;BMP280;57837;52.064;113.478;2022-11-20T01:09:13;93903.78;;;-14.74
70415;BMP280;57837;52.064;113.478;2022-11-20T01:12:17;93902.72;;;-14.57
70415;BMP280;57837;52.064;113.478;2022-11-20T01:15:21;93909.78;;;-14.30
70415;BMP280;57837;52.064;113.478;2022-11-20T01:18:25;93909.53;;;-14.00
70415;BMP280;57837;52.064;113.478;2022-11-20T01:21:31;93914.59;;;-13.81
70415;BMP280;57837;52.064;113.478;2022-11-20T01:24:35;93913.06;;;-13.77
70415;BMP280;57837;52.064;113.478;2022-11-20T01:27:38;93915.28;;;-13.46
70415;BMP280;57837;52.064;113.478;2022-11-20T01:30:43;93907.47;;;-13.40
70415;BMP280;57837;52.064;113.478;2022-11-20T01:33:48;93901.16;;;-13.08
70415;BMP280;57837;52.064;113.478;2022-11-20T01:36:52;93896.88;;;-12.46
70415;BMP280;57837;52.064;113.478;2022-11-20T01:39:56;93893.19;;;-12.16
70415;BMP280;57837;52.064;113.478;2022-11-20T01:43:14;93880.72;;;-12.16
70415;BMP280;57837;52.064;113.478;2022-11-20T01:46:26;93881.97;;;-11.86
70415;BMP280;57837;52.064;113.478;2022-11-20T01:49:52;93872.28;;;-11.60
70415;BMP280;57837;52.064;113.478;2022-11-20T01:53:03;93870.72;;;-11.56
70415;BMP280;57837;52.064;113.478;2022-11-20T01:56:11;93873.41;;;-11.39
70415;BMP280;57837;52.064;113.478;2022-11-20T01:59:17;93862.53;;;-11.07
70415;BMP280;57837;52.064;113.478;2022-11-20T02:02:22;93869.22;;;-10.57
70415;BMP280;57837;52.064;113.478;2022-11-20T02:05:36;93867.25;;;-10.16
70415;BMP280;57837;52.064;113.478;2022-11-20T02:08:41;93865.13;;;-10.00
70415;BMP280;57837;52.064;113.478;2022-11-20T02:11:45;93872.34;;;-9.98
70415;BMP280;57837;52.064;113.478;2022-11-20T02:14:49;93863.97;;;-10.25
70415;BMP280;57837;52.064;113.478;2022-11-20T02:17:53;93864.63;;;-10.42
70415;BMP280;57837;52.064;113.478;2022-11-20T02:21:06;93870.00;;;-10.48
70415;BMP280;57837;52.064;113.478;2022-11-20T02:24:21;93867.72;;;-10.36
70415;BMP280;57837;52.064;113.478;2022-11-20T02:27:26;93866.88;;;-10.54
70415;BMP280;57837;52.064;113.478;2022-11-20T02:30:29;93855.59;;;-10.51
70415;BMP280;57837;52.064;113.478;2022-11-20T02:33:33;93858.16;;;-10.43
70415;BMP280;57837;52.064;113.478;2022-11-20T02:36:39;93866.69;;;-10.35
70415;BMP280;57837;52.064;113.478;2022-11-20T02:39:44;93863.59;;;-10.40
70415;BMP280;57837;52.064;113.478;2022-11-20T02:42:53;93870.88;;;-10.22
70415;BMP280;57837;52.064;113.478;2022-11-20T02:45:57;93865.44;;;-10.24
70415;BMP280;57837;52.064;113.478;2022-11-20T02:49:03;93875.69;;;-10.34
70415;BMP280;57837;52.064;113.478;2022-11-20T02:52:06;93861.00;;;-10.27
70415;BMP280;57837;52.064;113.478;2022-11-20T02:55:10;93873.31;;;-10.08
70415;BMP280;57837;52.064;113.478;2022-11-20T02:58:13;93859.97;;;-9.95
70415;BMP280;57837;52.064;113.478;2022-11-20T03:01:17;93868.09;;;-9.89
70415;BMP280;57837;52.064;113.478;2022-11-20T03:04:21;93863.94;;;-9.63
70415;BMP280;57837;52.064;113.478;2022-11-20T03:07:25;93860.91;;;-9.16
70415;BMP280;57837;52.064;113.478;2022-11-20T03:10:29;93855.72;;;-8.68
70415;BMP280;57837;52.064;113.478;2022-11-20T03:13:34;93855.13;;;-8.56
70415;BMP280;57837;52.064;113.478;2022-11-20T03:16:38;93848.50;;;-8.70
70415;BMP280;57837;52.064;113.478;2022-11-20T03:19:41;93838.38;;;-8.82
70415;BMP280;57837;52.064;113.478;2022-11-20T03:22:45;93842.19;;;-8.84
70415;BMP280;57837;52.064;113.478;2022-11-20T03:25:48;93839.53;;;-8.88
70415;BMP280;57837;52.064;113.478;2022-11-20T03:28:56;93836.00;;;-8.87
70415;BMP280;57837;52.064;113.478;2022-11-20T03:32:00;93831.09;;;-8.49
70415;BMP280;57837;52.064;113.478;2022-11-20T03:35:05;93823.53;;;-8.40
70415;BMP280;57837;52.064;113.478;2022-11-20T03:38:08;93823.44;;;-8.70
70415;BMP280;57837;52.064;113.478;2022-11-20T03:41:39;93822.84;;;-8.75
70415;BMP280;57837;52.064;113.478;2022-11-20T03:44:43;93819.09;;;-8.43
70415;BMP280;57837;52.064;113.478;2022-11-20T03:47:46;93820.94;;;-8.61
70415;BMP280;57837;52.064;113.478;2022-11-20T03:50:51;93811.47;;;-8.64
70415;BMP280;57837;52.064;113.478;2022-11-20T03:53:57;93810.44;;;-8.54
70415;BMP280;57837;52.064;113.478;2022-11-20T03:57:00;93802.63;;;-8.61
70415;BMP280;57837;52.064;113.478;2022-11-20T04:00:06;93796.88;;;-8.71
70415;BMP280;57837;52.064;113.478;2022-11-20T04:03:09;93792.75;;;-8.75
70415;BMP280;57837;52.064;113.478;2022-11-20T04:06:21;93793.03;;;-8.59
70415;BMP280;57837;52.064;113.478;2022-11-20T04:09:24;93791.69;;;-8.57
70415;BMP280;57837;52.064;113.478;2022-11-20T04:12:32;93786.47;;;-8.35
70415;BMP280;57837;52.064;113.478;2022-11-20T04:15:35;93789.44;;;-8.32
70415;BMP280;57837;52.064;113.478;2022-11-20T04:18:40;93787.16;;;-8.25
70415;BMP280;57837;52.064;113.478;2022-11-20T04:21:44;93786.38;;;-8.09
70415;BMP280;57837;52.064;113.478;2022-11-20T04:24:47;93786.44;;;-8.26
70415;BMP280;57837;52.064;113.478;2022-11-20T04:27:50;93782.03;;;-8.29
70415;BMP280;57837;52.064;113.478;2022-11-20T04:30:53;93776.91;;;-8.12
70415;BMP280;57837;52.064;113.478;2022-11-20T04:34:04;93777.44;;;-8.27
70415;BMP280;57837;52.064;113.478;2022-11-20T04:37:08;93777.63;;;-8.41
70415;BMP280;57837;52.064;113.478;2022-11-20T04:40:12;93772.31;;;-8.39
70415;BMP280;57837;52.064;113.478;2022-11-20T04:43:15;93772.47;;;-8.44
70415;BMP280;57837;52.064;113.478;2022-11-20T04:46:20;93774.44;;;-8.20
70415;BMP280;57837;52.064;113.478;2022-11-20T04:49:24;93772.25;;;-8.22
70415;BMP280;57837;52.064;113.478;2022-11-20T04:52:27;93770.47;;;-8.51
70415;BMP280;57837;52.064;113.478;2022-11-20T04:55:30;93764.06;;;-8.48
70415;BMP280;57837;52.064;113.478;2022-11-20T04:58:33;93764.16;;;-8.27
70415;BMP280;57837;52.064;113.478;2022-11-20T05:01:37;93754.56;;;-8.34
70415;BMP280;57837;52.064;113.478;2022-11-20T05:04:40;93754.44;;;-8.38
70415;BMP280;57837;52.064;113.478;2022-11-20T05:07:44;93748.53;;;-8.33
70415;BMP280;57837;52.064;113.478;2022-11-20T05:10:47;93752.78;;;-8.25
70415;BMP280;57837;52.064;113.478;2022-11-20T05:13:51;93747.91;;;-8.21
70415;BMP280;57837;52.064;113.478;2022-11-20T05:16:54;93742.34;;;-8.06
70415;BMP280;57837;52.064;113.478;2022-11-20T05:19:58;93743.72;;;-7.88
70415;BMP280;57837;52.064;113.478;2022-11-20T05:23:01;93727.06;;;-7.72
70415;BMP280;57837;52.064;113.478;2022-11-20T05:26:06;93734.59;;;-7.72
70415;BMP280;57837;52.064;113.478;2022-11-20T05:29:11;93725.47;;;-7.97
70415;BMP280;57837;52.064;113.478;2022-11-20T05:32:15;93723.94;;;-7.89
70415;BMP280;57837;52.064;113.478;2022-11-20T05:35:18;93721.94;;;-7.75
70415;BMP280;57837;52.064;113.478;2022-11-20T05:38:22;93720.38;;;-7.88
70415;BMP280;57837;52.064;113.478;2022-11-20T05:41:25;93717.56;;;-7.87
70415;BMP280;57837;52.064;113.478;2022-11-20T05:44:28;93713.78;;;-7.72
70415;BMP280;57837;52.064;113.478;2022-11-20T05:47:33;93710.41;;;-7.55
70415;BMP280;57837;52.064;113.478;2022-11-20T05:50:38;93709.94;;;-7.57
70415;BMP280;57837;52.064;113.478;2022-11-20T05:53:41;93706.75;;;-7.46
70415;BMP280;57837;52.064;113.478;2022-11-20T05:56:49;93709.91;;;-7.49
70415;BMP280;57837;52.064;113.478;2022-11-20T05:59:52;93709.41;;;-7.42
70415;BMP280;57837;52.064;113.478;2022-11-20T06:02:56;93702.31;;;-7.28
70415;BMP280;57837;52.064;113.478;2022-11-20T06:06:01;93706.94;;;-7.30
70415;BMP280;57837;52.064;113.478;2022-11-20T06:09:05;93708.16;;;-7.36
70415;BMP280;57837;52.064;113.478;2022-11-20T06:12:08;93699.06;;;-7.28
70415;BMP280;57837;52.064;113.478;2022-11-20T06:15:12;93700.66;;;-7.24
70415;BMP280;57837;52.064;113.478;2022-11-20T06:18:16;93697.53;;;-7.21
70415;BMP280;57837;52.064;113.478;2022-11-20T06:21:21;93694.47;;;-7.26
70415;BMP280;57837;52.064;113.478;2022-11-20T06:24:25;93701.75;;;-7.33
70415;BMP280;57837;52.064;113.478;2022-11-20T06:27:29;93696.19;;;-7.39
70415;BMP280;57837;52.064;113.478;2022-11-20T06:30:33;93701.03;;;-7.34
70415;BMP280;57837;52.064;113.478;2022-11-20T06:33:37;93694.16;;;-7.25
70415;BMP280;57837;52.064;113.478;2022-11-20T06:36:40;93697.09;;;-7.23
70415;BMP280;57837;52.064;113.478;2022-11-20T06:39:44;93692.06;;;-7.23
70415;BMP280;57837;52.064;113.478;2022-11-20T06:42:47;93692.59;;;-7.29
70415;BMP280;57837;52.064;113.478;2022-11-20T06:45:52;93691.47;;;-7.20
70415;BMP280;57837;52.064;113.478;2022-11-20T06:48:56;93691.75;;;-7.21
70415;BMP280;57837;52.064;113.478;2022-11-20T06:52:01;93682.75;;;-7.22
70415;BMP280;57837;52.064;113.478;2022-11-20T06:55:05;93682.47;;;-7.21
70415;BMP280;57837;52.064;113.478;2022-11-20T06:58:09;93679.66;;;-7.07
70415;BMP280;57837;52.064;113.478;2022-11-20T07:01:14;93681.25;;;-6.90
70415;BMP280;57837;52.064;113.478;2022-11-20T07:04:18;93682.91;;;-6.94
70415;BMP280;57837;52.064;113.478;2022-11-20T07:07:22;93679.13;;;-7.00
70415;BMP280;57837;52.064;113.478;2022-11-20T07:10:26;93678.94;;;-6.95
70415;BMP280;57837;52.064;113.478;2022-11-20T07:13:30;93679.56;;;-6.86
70415;BMP280;57837;52.064;113.478;2022-11-20T07:16:34;93676.00;;;-6.85
70415;BMP280;57837;52.064;113.478;2022-11-20T07:19:38;93676.41;;;-6.71
70415;BMP280;57837;52.064;113.478;2022-11-20T07:22:43;93678.72;;;-6.78
70415;BMP280;57837;52.064;113.478;2022-11-20T07:25:46;93669.81;;;-6.88
70415;BMP280;57837;52.064;113.478;2022-11-20T07:28:50;93681.44;;;-6.83
70415;BMP280;57837;52.064;113.478;2022-11-20T07:31:54;93673.81;;;-6.87
70415;BMP280;57837;52.064;113.478;2022-11-20T07:34:59;93683.34;;;-6.92
70415;BMP280;57837;52.064;113.478;2022-11-20T07:38:02;93678.31;;;-6.92
70415;BMP280;57837;52.064;113.478;2022-11-20T07:41:06;93676.41;;;-6.95
70415;BMP280;57837;52.064;113.478;2022-11-20T07:44:09;93675.13;;;-7.01
70415;BMP280;57837;52.064;113.478;2022-11-20T07:47:13;93682.69;;;-7.01
70415;BMP280;57837;52.064;113.478;2022-11-20T07:50:18;93684.56;;;-6.98
70415;BMP280;57837;52.064;113.478;2022-11-20T07:53:23;93686.31;;;-7.11
70415;BMP280;57837;52.064;113.478;2022-11-20T07:56:26;93676.47;;;-7.28
70415;BMP280;57837;52.064;113.478;2022-11-20T07:59:30;93686.06;;;-7.43
70415;BMP280;57837;52.064;113.478;2022-11-20T08:02:36;93684.84;;;-7.57
70415;BMP280;57837;52.064;113.478;2022-11-20T08:05:39;93687.13;;;-7.64
70415;BMP280;57837;52.064;113.478;2022-11-20T08:08:42;93700.19;;;-7.71
70415;BMP280;57837;52.064;113.478;2022-11-20T08:11:46;93691.97;;;-7.80
70415;BMP280;57837;52.064;113.478;2022-11-20T08:15:08;93694.31;;;-7.96
70415;BMP280;57837;52.064;113.478;2022-11-20T08:18:15;93707.69;;;-8.13
70415;BMP280;57837;52.064;113.478;2022-11-20T08:21:34;93697.75;;;-8.30
70415;BMP280;57837;52.064;113.478;2022-11-20T08:24:40;93703.41;;;-8.42
70415;BMP280;57837;52.064;113.478;2022-11-20T08:27:43;93706.63;;;-8.62
70415;BMP280;57837;52.064;113.478;2022-11-20T08:30:49;93704.31;;;-8.84
70415;BMP280;57837;52.064;113.478;2022-11-20T08:33:53;93705.72;;;-9.13
70415;BMP280;57837;52.064;113.478;2022-11-20T08:36:57;93710.47;;;-9.37
70415;BMP280;57837;52.064;113.478;2022-11-20T08:40:02;93711.22;;;-9.63
70415;BMP280;57837;52.064;113.478;2022-11-20T08:43:05;93713.81;;;-9.94
70415;BMP280;57837;52.064;113.478;2022-11-20T08:46:09;93732.31;;;-10.12
70415;BMP280;57837;52.064;113.478;2022-11-20T08:49:14;93727.19;;;-10.16
70415;BMP280;57837;52.064;113.478;2022-11-20T08:52:18;93725.81;;;-10.30
70415;BMP280;57837;52.064;113.478;2022-11-20T08:55:22;93732.84;;;-10.41
70415;BMP280;57837;52.064;113.478;2022-11-20T08:58:26;93732.97;;;-10.46
70415;BMP280;57837;52.064;113.478;2022-11-20T09:01:30;93737.81;;;-10.50
70415;BMP280;57837;52.064;113.478;2022-11-20T09:04:33;93744.25;;;-10.57
70415;BMP280;57837;52.064;113.478;2022-11-20T09:07:38;93733.50;;;-10.58
70415;BMP280;57837;52.064;113.478;2022-11-20T09:10:43;93747.47;;;-10.57
70415;BMP280;57837;52.064;113.478;2022-11-20T09:13:47;93746.66;;;-10.75
70415;BMP280;57837;52.064;113.478;2022-11-20T09:16:50;93739.63;;;-11.17
70415;BMP280;57837;52.064;113.478;2022-11-20T09:19:54;93736.28;;;-11.35
70415;BMP280;57837;52.064;113.478;2022-11-20T09:22:58;93740.91;;;-11.78
70415;BMP280;57837;52.064;113.478;2022-11-20T09:26:03;93746.91;;;-11.79
70415;BMP280;57837;52.064;113.478;2022-11-20T09:29:07;93749.31;;;-11.88
70415;BMP280;57837;52.064;113.478;2022-11-20T09:32:11;93752.03;;;-11.84
70415;BMP280;57837;52.064;113.478;2022-11-20T09:35:15;93754.13;;;-11.78
70415;BMP280;57837;52.064;113.478;2022-11-20T09:38:19;93755.03;;;-11.74
70415;BMP280;57837;52.064;113.478;2022-11-20T09:51:44;93755.31;;;-12.03
70415;BMP280;57837;52.064;113.478;2022-11-20T09:54:49;93750.78;;;-12.28
70415;BMP280;57837;52.064;113.478;2022-11-20T09:57:54;93761.31;;;-12.31
70415;BMP280;57837;52.064;113.478;2022-11-20T10:01:08;93761.16;;;-12.35
70415;BMP280;57837;52.064;113.478;2022-11-20T10:04:16;93769.63;;;-12.36
70415;BMP280;57837;52.064;113.478;2022-11-20T10:11:22;93771.59;;;-12.19
70415;BMP280;57837;52.064;113.478;2022-11-20T10:14:36;93764.75;;;-12.27
70415;BMP280;57837;52.064;113.478;2022-11-20T10:21:29;93777.47;;;-12.29
70415;BMP280;57837;52.064;113.478;2022-11-20T10:28:15;93782.56;;;-12.34
70415;BMP280;57837;52.064;113.478;2022-11-20T10:31:31;93787.34;;;-12.37
70415;BMP280;57837;52.064;113.478;2022-11-20T10:34:53;93793.69;;;-12.45
70415;BMP280;57837;52.064;113.478;2022-11-20T10:38:03;93800.84;;;-12.57
70415;BMP280;57837;52.064;113.478;2022-11-20T10:41:16;93803.47;;;-12.62
70415;BMP280;57837;52.064;113.478;2022-11-20T10:44:32;93807.69;;;-12.63
70415;BMP280;57837;52.064;113.478;2022-11-20T10:48:12;93809.25;;;-12.67
70415;BMP280;57837;52.064;113.478;2022-11-20T10:51:31;93820.41;;;-12.64
70415;BMP280;57837;52.064;113.478;2022-11-20T10:58:29;93826.28;;;-12.74
70415;BMP280;57837;52.064;113.478;2022-11-20T11:01:41;93827.91;;;-12.83
70415;BMP280;57837;52.064;113.478;2022-11-20T11:04:51;93823.28;;;-12.90
70415;BMP280;57837;52.064;113.478;2022-11-20T11:07:56;93829.00;;;-12.89
70415;BMP280;57837;52.064;113.478;2022-11-20T11:14:28;93828.03;;;-12.93
70415;BMP280;57837;52.064;113.478;2022-11-20T11:17:33;93824.59;;;-12.97
70415;BMP280;57837;52.064;113.478;2022-11-20T11:20:37;93825.16;;;-13.00
70415;BMP280;57837;52.064;113.478;2022-11-20T11:23:43;93838.38;;;-13.05
70415;BMP280;57837;52.064;113.478;2022-11-20T11:27:01;93839.72;;;-13.13
70415;BMP280;57837;52.064;113.478;2022-11-20T11:30:18;93835.44;;;-13.26
70415;BMP280;57837;52.064;113.478;2022-11-20T11:36:28;93837.81;;;-13.16
70415;BMP280;57837;52.064;113.478;2022-11-20T11:39:33;93835.75;;;-13.14
70415;BMP280;57837;52.064;113.478;2022-11-20T11:42:46;93842.94;;;-13.12
70415;BMP280;57837;52.064;113.478;2022-11-20T11:45:54;93840.06;;;-13.19
70415;BMP280;57837;52.064;113.478;2022-11-20T11:52:17;93841.25;;;-13.36
70415;BMP280;57837;52.064;113.478;2022-11-20T11:58:50;93850.53;;;-13.65
70415;BMP280;57837;52.064;113.478;2022-11-20T12:01:59;93843.28;;;-13.62
70415;BMP280;57837;52.064;113.478;2022-11-20T12:05:26;93845.97;;;-13.58
70415;BMP280;57837;52.064;113.478;2022-11-20T12:08:59;93857.25;;;-13.66
70415;BMP280;57837;52.064;113.478;2022-11-20T12:15:47;93853.66;;;-13.78
70415;BMP280;57837;52.064;113.478;2022-11-20T12:18:52;93850.91;;;-13.77
70415;BMP280;57837;52.064;113.478;2022-11-20T12:25:32;93854.94;;;-13.81
70415;BMP280;57837;52.064;113.478;2022-11-20T12:42:09;93863.22;;;-13.43
70415;BMP280;57837;52.064;113.478;2022-11-20T12:49:37;93885.50;;;-13.56
70415;BMP280;57837;52.064;113.478;2022-11-20T12:56:36;93879.34;;;-13.88
70415;BMP280;57837;52.064;113.478;2022-11-20T13:03:31;93881.28;;;-14.09
70415;BMP280;57837;52.064;113.478;2022-11-20T13:06:37;93886.00;;;-14.12
70415;BMP280;57837;52.064;113.478;2022-11-20T13:09:44;93892.22;;;-14.10
70415;BMP280;57837;52.064;113.478;2022-11-20T13:16:17;93890.38;;;-14.28
70415;BMP280;57837;52.064;113.478;2022-11-20T13:19:22;93891.84;;;-14.27
70415;BMP280;57837;52.064;113.478;2022-11-20T13:22:48;93891.88;;;-14.32
70415;BMP280;57837;52.064;113.478;2022-11-20T13:26:22;93893.34;;;-14.26
70415;BMP280;57837;52.064;113.478;2022-11-20T13:29:26;93894.81;;;-14.25
70415;BMP280;57837;52.064;113.478;2022-11-20T13:32:30;93884.94;;;-14.30
70415;BMP280;57837;52.064;113.478;2022-11-20T13:35:37;93882.31;;;-14.15
70415;BMP280;57837;52.064;113.478;2022-11-20T13:38:49;93893.88;;;-14.00
70415;BMP280;57837;52.064;113.478;2022-11-20T13:42:29;93892.16;;;-14.00
70415;BMP280;57837;52.064;113.478;2022-11-20T13:45:30;93905.09;;;-14.08
70415;BMP280;57837;52.064;113.478;2022-11-20T13:48:45;93899.25;;;-14.22
70415;BMP280;57837;52.064;113.478;2022-11-20T13:52:38;93903.34;;;-14.36
70415;BMP280;57837;52.064;113.478;2022-11-20T13:55:59;93900.78;;;-14.65
70415;BMP280;57837;52.064;113.478;2022-11-20T13:59:05;93891.38;;;-14.79
70415;BMP280;57837;52.064;113.478;2022-11-20T14:02:18;93893.94;;;-14.84
70415;BMP280;57837;52.064;113.478;2022-11-20T14:05:23;93889.81;;;-15.09
70415;BMP280;57837;52.064;113.478;2022-11-20T14:08:39;93896.31;;;-15.18
70415;BMP280;57837;52.064;113.478;2022-11-20T14:11:47;93905.00;;;-15.31
70415;BMP280;57837;52.064;113.478;2022-11-20T14:14:52;93899.53;;;-15.28
70415;BMP280;57837;52.064;113.478;2022-11-20T14:17:56;93893.09;;;-15.34
70415;BMP280;57837;52.064;113.478;2022-11-20T14:21:02;93895.59;;;-15.34
70415;BMP280;57837;52.064;113.478;2022-11-20T14:24:10;93908.03;;;-15.49
70415;BMP280;57837;52.064;113.478;2022-11-20T14:27:19;93906.56;;;-15.70
70415;BMP280;57837;52.064;113.478;2022-11-20T14:30:49;93899.38;;;-15.82
70415;BMP280;57837;52.064;113.478;2022-11-20T14:33:53;93898.19;;;-15.90
70415;BMP280;57837;52.064;113.478;2022-11-20T14:36:59;93903.41;;;-15.91
70415;BMP280;57837;52.064;113.478;2022-11-20T14:40:21;93897.66;;;-15.87
70415;BMP280;57837;52.064;113.478;2022-11-20T14:43:26;93912.31;;;-15.95
70415;BMP280;57837;52.064;113.478;2022-11-20T14:46:31;93914.03;;;-15.96
70415;BMP280;57837;52.064;113.478;2022-11-20T14:49:35;93913.03;;;-15.74
70415;BMP280;57837;52.064;113.478;2022-11-20T14:52:56;93913.53;;;-15.67
70415;BMP280;57837;52.064;113.478;2022-11-20T14:56:01;93920.00;;;-15.97
70415;BMP280;57837;52.064;113.478;2022-11-20T14:59:05;93923.44;;;-16.13
70415;BMP280;57837;52.064;113.478;2022-11-20T15:02:10;93920.22;;;-16.29
70415;BMP280;57837;52.064;113.478;2022-11-20T15:05:15;93920.66;;;-16.42
70415;BMP280;57837;52.064;113.478;2022-11-20T15:08:19;93921.16;;;-16.45
70415;BMP280;57837;52.064;113.478;2022-11-20T15:11:32;93930.59;;;-16.27
70415;BMP280;57837;52.064;113.478;2022-11-20T15:14:36;93919.69;;;-16.16
70415;BMP280;57837;52.064;113.478;2022-11-20T15:17:40;93937.78;;;-16.25
70415;BMP280;57837;52.064;113.478;2022-11-20T15:20:44;93931.06;;;-16.30
70415;BMP280;57837;52.064;113.478;2022-11-20T15:23:49;93943.94;;;-16.48
70415;BMP280;57837;52.064;113.478;2022-11-20T15:26:53;93934.53;;;-16.41
70415;BMP280;57837;52.064;113.478;2022-11-20T15:29:57;93937.25;;;-16.38
70415;BMP280;57837;52.064;113.478;2022-11-20T15:33:01;93937.28;;;-16.32
70415;BMP280;57837;52.064;113.478;2022-11-20T15:36:05;93928.13;;;-16.32
70415;BMP280;57837;52.064;113.478;2022-11-20T15:39:09;93930.31;;;-16.36
70415;BMP280;57837;52.064;113.478;2022-11-20T15:42:13;93929.38;;;-16.24
70415;BMP280;57837;52.064;113.478;2022-11-20T15:45:16;93919.72;;;-16.11
70415;BMP280;57837;52.064;113.478;2022-11-20T15:48:21;93928.91;;;-15.96
70415;BMP280;57837;52.064;113.478;2022-11-20T15:51:31;93932.34;;;-15.92
70415;BMP280;57837;52.064;113.478;2022-11-20T15:54:34;93939.78;;;-16.07
70415;BMP280;57837;52.064;113.478;2022-11-20T15:57:38;93936.25;;;-16.47
70415;BMP280;57837;52.064;113.478;2022-11-20T16:00:41;93941.19;;;-16.52
70415;BMP280;57837;52.064;113.478;2022-11-20T16:03:45;93944.69;;;-16.48
70415;BMP280;57837;52.064;113.478;2022-11-20T16:06:49;93955.03;;;-16.56
70415;BMP280;57837;52.064;113.478;2022-11-20T16:09:52;93952.81;;;-16.52
70415;BMP280;57837;52.064;113.478;2022-11-20T16:12:57;93953.78;;;-16.58
70415;BMP280;57837;52.064;113.478;2022-11-20T16:16:39;93960.03;;;-16.46
70415;BMP280;57837;52.064;113.478;2022-11-20T16:19:44;93959.94;;;-16.71
70415;BMP280;57837;52.064;113.478;2022-11-20T16:22:48;93950.44;;;-17.00
70415;BMP280;57837;52.064;113.478;2022-11-20T16:25:51;93953.03;;;-17.22
70415;BMP280;57837;52.064;113.478;2022-11-20T16:28:55;93960.44;;;-17.27
70415;BMP280;57837;52.064;113.478;2022-11-20T16:31:59;93958.34;;;-17.40
70415;BMP280;57837;52.064;113.478;2022-11-20T16:35:02;93956.53;;;-17.55
70415;BMP280;57837;52.064;113.478;2022-11-20T16:38:05;93953.03;;;-17.59
70415;BMP280;57837;52.064;113.478;2022-11-20T16:41:10;93962.13;;;-17.64
70415;BMP280;57837;52.064;113.478;2022-11-20T16:44:16;93958.66;;;-17.68
70415;BMP280;57837;52.064;113.478;2022-11-20T16:47:20;93949.13;;;-17.50
70415;BMP280;57837;52.064;113.478;2022-11-20T16:50:23;93940.25;;;-17.51
70415;BMP280;57837;52.064;113.478;2022-11-20T16:53:27;93940.78;;;-17.43
70415;BMP280;57837;52.064;113.478;2022-11-20T16:56:31;93939.75;;;-17.48
70415;BMP280;57837;52.064;113.478;2022-11-20T16:59:34;93934.41;;;-17.34
70415;BMP280;57837;52.064;113.478;2022-11-20T17:02:37;93933.53;;;-17.60
70415;BMP280;57837;52.064;113.478;2022-11-20T17:05:41;93940.06;;;-17.76
70415;BMP280;57837;52.064;113.478;2022-11-20T17:08:45;93937.75;;;-17.56
70415;BMP280;57837;52.064;113.478;2022-11-20T17:11:49;93941.03;;;-17.45
70415;BMP280;57837;52.064;113.478;2022-11-20T17:14:53;93944.44;;;-17.56
70415;BMP280;57837;52.064;113.478;2022-11-20T17:17:56;93947.69;;;-17.78
70415;BMP280;57837;52.064;113.478;2022-11-20T17:21:00;93954.78;;;-18.18
70415;BMP280;57837;52.064;113.478;2022-11-20T17:24:09;93957.31;;;-18.35
70415;BMP280;57837;52.064;113.478;2022-11-20T17:27:13;93951.09;;;-18.43
70415;BMP280;57837;52.064;113.478;2022-11-20T17:30:16;93960.44;;;-18.45
70415;BMP280;57837;52.064;113.478;2022-11-20T17:33:19;93951.19;;;-18.55
70415;BMP280;57837;52.064;113.478;2022-11-20T17:36:22;93961.00;;;-18.60
70415;BMP280;57837;52.064;113.478;2022-11-20T17:39:26;93963.81;;;-18.73
70415;BMP280;57837;52.064;113.478;2022-11-20T17:42:29;93958.00;;;-18.67
70415;BMP280;57837;52.064;113.478;2022-11-20T17:45:38;93953.31;;;-18.63
70415;BMP280;57837;52.064;113.478;2022-11-20T17:48:42;93958.78;;;-18.61
70415;BMP280;57837;52.064;113.478;2022-11-20T17:51:45;93959.72;;;-18.67
70415;BMP280;57837;52.064;113.478;2022-11-20T17:54:49;93965.03;;;-18.54
70415;BMP280;57837;52.064;113.478;2022-11-20T17:57:57;93964.56;;;-18.50
70415;BMP280;57837;52.064;113.478;2022-11-20T18:01:06;93972.19;;;-18.30
70415;BMP280;57837;52.064;113.478;2022-11-20T18:04:11;93960.66;;;-18.24
70415;BMP280;57837;52.064;113.478;2022-11-20T18:07:14;93959.78;;;-18.13
70415;BMP280;57837;52.064;113.478;2022-11-20T18:10:17;93966.31;;;-18.24
70415;BMP280;57837;52.064;113.478;2022-11-20T18:13:21;93963.38;;;-18.21
70415;BMP280;57837;52.064;113.478;2022-11-20T18:16:52;93966.38;;;-18.19
70415;BMP280;57837;52.064;113.478;2022-11-20T18:19:55;93970.69;;;-18.04
70415;BMP280;57837;52.064;113.478;2022-11-20T18:23:19;93964.56;;;-18.29
70415;BMP280;57837;52.064;113.478;2022-11-20T18:26:24;93951.72;;;-18.53
70415;BMP280;57837;52.064;113.478;2022-11-20T18:29:29;93964.44;;;-18.61